Time;durP1;ratioP1;P1;durP2;ratioP2;P2;SDS_P1;SDS_P2;PMS_P1;PMS_P2;Temp;Humidity;BMP_temperature;BMP_pressure;BME280_temperature;BME280_humidity;BME280_pressure;Samples;Min_cycle;Max_cycle;Signal;HPM_P1;HPM_P2
2021/11/13 00:01:00;;;;;;;5.43;2.95;;;17.00;99.90;;;;;;5097560;28;20093;-67
2021/11/13 00:03:25;;;;;;;4.55;2.72;;;17.00;99.90;;;;;;5097442;28;20020;-67
2021/11/13 00:05:51;;;;;;;6.38;2.90;;;17.00;99.90;;;;;;5097835;28;20491;-67
2021/11/13 00:08:17;;;;;;;5.10;2.90;;;17.00;99.90;;;;;;5097165;28;20024;-67
2021/11/13 00:10:43;;;;;;;6.05;2.50;;;17.00;99.90;;;;;;5097629;28;20043;-67
2021/11/13 00:13:09;;;;;;;4.35;2.72;;;17.00;99.90;;;;;;5097272;28;20024;-67
2021/11/13 00:15:36;;;;;;;4.68;2.60;;;17.00;99.90;;;;;;5096154;28;20024;-67
2021/11/13 00:18:01;;;;;;;6.90;2.80;;;17.00;99.90;;;;;;5097323;28;20023;-67
2021/11/13 00:20:28;;;;;;;5.43;2.80;;;17.00;99.90;;;;;;5097519;28;20047;-67
2021/11/13 00:22:55;;;;;;;5.07;2.90;;;17.00;99.90;;;;;;5097367;28;20051;-67
2021/11/13 00:25:21;;;;;;;4.90;2.70;;;17.00;99.90;;;;;;5095696;28;20365;-67
2021/11/13 00:27:47;;;;;;;4.65;3.00;;;17.00;99.90;;;;;;5094262;28;20427;-66
2021/11/13 00:30:14;;;;;;;4.60;2.67;;;17.00;99.90;;;;;;5094038;28;20093;-66
2021/11/13 00:32:40;;;;;;;4.57;2.70;;;17.00;99.90;;;;;;5094156;28;20028;-67
2021/11/13 00:35:07;;;;;;;4.75;2.70;;;17.00;99.90;;;;;;5093984;28;20051;-67
2021/11/13 00:37:32;;;;;;;6.50;2.47;;;17.00;99.90;;;;;;5094204;28;20024;-66
2021/11/13 00:39:58;;;;;;;4.55;2.53;;;16.90;99.90;;;;;;5093924;28;20086;-66
2021/11/13 00:42:24;;;;;;;5.25;2.63;;;16.90;99.90;;;;;;5094112;28;20024;-67
2021/11/13 00:44:50;;;;;;;6.28;2.47;;;17.00;99.90;;;;;;5094278;28;20042;-67
2021/11/13 00:47:16;;;;;;;4.55;2.50;;;17.00;99.90;;;;;;5093464;28;20055;-66
2021/11/13 00:49:42;;;;;;;4.65;2.58;;;16.90;99.90;;;;;;5094054;28;20028;-66
2021/11/13 00:52:08;;;;;;;5.45;3.05;;;16.90;99.90;;;;;;5093590;28;20024;-67
2021/11/13 00:54:34;;;;;;;4.78;2.70;;;16.90;99.90;;;;;;5093653;28;20419;-67
2021/11/13 00:57:04;;;;;;;5.55;3.03;;;16.90;99.90;;;;;;5093322;28;20388;-66
2021/11/13 00:59:30;;;;;;;4.85;2.58;;;16.90;99.90;;;;;;5093434;28;20032;-67
2021/11/13 01:01:56;;;;;;;5.60;2.90;;;16.90;99.90;;;;;;5093628;28;20036;-67
2021/11/13 01:04:23;;;;;;;5.10;2.40;;;16.90;99.90;;;;;;5093852;28;20020;-66
2021/11/13 01:06:49;;;;;;;5.28;2.33;;;16.90;99.90;;;;;;5092511;28;20020;-67
2021/11/13 01:09:14;;;;;;;2.83;1.80;;;16.90;99.90;;;;;;5093325;28;20020;-67
2021/11/13 01:11:40;;;;;;;4.30;2.25;;;16.90;99.90;;;;;;5093474;28;20026;-67
2021/11/13 01:14:06;;;;;;;5.03;2.40;;;16.90;99.90;;;;;;5093165;28;20012;-66
2021/11/13 01:16:31;;;;;;;3.45;2.10;;;16.90;99.90;;;;;;5093303;28;20054;-67
2021/11/13 01:18:57;;;;;;;6.10;2.35;;;16.90;99.90;;;;;;5093015;28;20031;-67
2021/11/13 01:21:23;;;;;;;4.35;2.10;;;16.90;99.90;;;;;;5093243;28;20032;-67
2021/11/13 01:23:50;;;;;;;3.50;2.28;;;16.90;99.90;;;;;;5093509;28;20032;-66
2021/11/13 01:26:16;;;;;;;5.43;2.38;;;16.90;99.90;;;;;;5093037;28;20111;-67
2021/11/13 01:28:42;;;;;;;3.90;2.13;;;16.90;99.90;;;;;;5093530;28;20028;-67
2021/11/13 01:31:07;;;;;;;3.83;2.33;;;16.80;99.90;;;;;;5092784;28;20030;-66
2021/11/13 01:33:37;;;;;;;4.22;2.17;;;16.90;99.90;;;;;;5093039;28;20035;-66
2021/11/13 01:36:04;;;;;;;4.75;1.80;;;16.80;99.90;;;;;;5092814;28;20035;-65
2021/11/13 01:38:31;;;;;;;4.45;2.20;;;16.80;99.90;;;;;;5092625;28;20051;-66
2021/11/13 01:40:57;;;;;;;3.72;2.10;;;16.80;99.90;;;;;;5092772;28;20040;-66
2021/11/13 01:43:23;;;;;;;4.03;2.13;;;16.80;99.90;;;;;;5092936;28;20056;-66
2021/11/13 01:45:49;;;;;;;4.57;2.10;;;16.80;99.90;;;;;;5093249;28;20028;-66
2021/11/13 01:48:15;;;;;;;4.22;2.00;;;16.80;99.90;;;;;;5091244;28;20099;-66
2021/11/13 01:50:45;;;;;;;3.75;1.90;;;16.80;99.90;;;;;;5092668;28;20433;-66
2021/11/13 01:53:11;;;;;;;3.50;1.60;;;16.80;99.90;;;;;;5092221;28;20594;-66
2021/11/13 01:55:41;;;;;;;4.47;2.03;;;16.80;99.90;;;;;;5091372;28;20388;-67
2021/11/13 01:58:13;;;;;;;3.95;1.80;;;16.80;99.90;;;;;;5092171;28;20484;-66
2021/11/13 02:00:44;;;;;;;3.13;1.88;;;16.80;99.90;;;;;;5092608;28;20036;-67
2021/11/13 02:03:12;;;;;;;4.30;2.20;;;16.80;99.90;;;;;;5092039;28;20502;-66
2021/11/13 02:05:38;;;;;;;4.10;2.17;;;16.80;99.90;;;;;;5092354;28;20028;-66
2021/11/13 02:08:05;;;;;;;4.22;2.10;;;16.80;99.90;;;;;;5092108;28;20024;-66
2021/11/13 02:10:32;;;;;;;3.15;1.98;;;16.80;99.90;;;;;;5092246;28;20471;-66
2021/11/13 02:12:58;;;;;;;4.82;2.30;;;16.80;99.90;;;;;;5092091;28;20024;-67
2021/11/13 02:15:25;;;;;;;4.57;1.90;;;16.80;99.90;;;;;;5092286;28;20110;-66
2021/11/13 02:17:52;;;;;;;3.40;1.90;;;16.80;99.90;;;;;;5092333;28;20487;-66
2021/11/13 02:20:38;;;;;;;2.60;1.48;;;16.80;99.90;;;;;;5092068;28;20081;-67
2021/11/13 02:23:10;;;;;;;3.20;1.60;;;16.80;99.90;;;;;;5073534;28;20268;-67
2021/11/13 02:25:36;;;;;;;3.65;1.80;;;16.80;99.90;;;;;;5091980;28;20093;-66
2021/11/13 02:28:05;;;;;;;4.22;1.80;;;16.70;99.90;;;;;;5091799;28;20020;-67
2021/11/13 02:30:31;;;;;;;3.72;1.70;;;16.70;99.90;;;;;;5091893;28;20035;-66
2021/11/13 02:32:57;;;;;;;4.88;1.90;;;16.70;99.90;;;;;;5091659;28;20411;-66
2021/11/13 02:35:25;;;;;;;3.63;1.77;;;16.70;99.90;;;;;;5091840;28;20031;-66
2021/11/13 02:37:51;;;;;;;4.03;1.95;;;16.70;99.90;;;;;;5092115;28;20107;-66
2021/11/13 02:40:18;;;;;;;2.42;1.60;;;16.70;99.90;;;;;;5091433;28;20406;-67
2021/11/13 02:42:45;;;;;;;2.67;1.48;;;16.70;99.90;;;;;;5091775;28;20081;-66
2021/11/13 02:45:13;;;;;;;3.20;1.80;;;16.70;99.90;;;;;;5091372;28;20024;-66
2021/11/13 02:47:46;;;;;;;2.60;1.67;;;16.70;99.90;;;;;;5091683;28;20084;-66
2021/11/13 02:50:15;;;;;;;3.37;1.50;;;16.70;99.90;;;;;;5089671;28;20024;-66
2021/11/13 02:52:45;;;;;;;2.53;1.60;;;16.70;99.90;;;;;;5091744;28;20266;-66
2021/11/13 02:55:10;;;;;;;2.92;1.52;;;16.70;99.90;;;;;;5091415;28;20063;-67
2021/11/13 02:57:38;;;;;;;2.65;1.63;;;16.70;99.90;;;;;;5091513;28;20044;-67
2021/11/13 03:00:05;;;;;;;3.40;1.70;;;16.70;99.90;;;;;;5091228;28;20084;-67
2021/11/13 03:02:32;;;;;;;3.45;1.70;;;16.70;99.90;;;;;;5091503;28;20020;-67
2021/11/13 03:04:58;;;;;;;3.05;1.60;;;16.70;99.90;;;;;;5091576;28;20353;-67
2021/11/13 03:07:24;;;;;;;2.97;1.50;;;16.70;99.90;;;;;;5091526;28;20020;-67
2021/11/13 03:09:49;;;;;;;2.20;1.33;;;16.70;99.90;;;;;;5091784;28;20031;-67
2021/11/13 03:12:15;;;;;;;2.63;1.42;;;16.70;99.90;;;;;;5091231;28;20115;-67
2021/11/13 03:14:41;;;;;;;3.08;1.30;;;16.70;99.90;;;;;;5091465;28;20468;-68
2021/11/13 03:17:11;;;;;;;4.03;1.65;;;16.70;99.90;;;;;;5091457;28;20039;-67
2021/11/13 03:19:37;;;;;;;3.13;1.40;;;16.70;99.90;;;;;;5091566;28;20031;-67
2021/11/13 03:22:03;;;;;;;1.90;1.10;;;16.70;99.90;;;;;;5091192;28;20388;-67
2021/11/13 03:24:29;;;;;;;2.60;1.27;;;16.70;99.90;;;;;;5091354;28;20031;-67
2021/11/13 03:26:56;;;;;;;2.88;1.40;;;16.70;99.90;;;;;;5091085;28;20036;-67
2021/11/13 03:29:28;;;;;;;2.03;1.25;;;16.70;99.90;;;;;;5091640;28;20027;-67
2021/11/13 03:31:55;;;;;;;3.15;1.67;;;16.60;99.90;;;;;;5091070;28;20036;-67
2021/11/13 03:34:20;;;;;;;3.03;1.40;;;16.70;99.90;;;;;;5091604;28;20026;-67
2021/11/13 03:36:46;;;;;;;2.47;1.20;;;16.70;99.90;;;;;;5091458;28;20099;-67
2021/11/13 03:39:12;;;;;;;2.38;1.27;;;16.60;99.90;;;;;;5090953;28;20430;-67
2021/11/13 03:41:38;;;;;;;1.90;1.20;;;16.70;99.90;;;;;;5091159;28;20040;-67
2021/11/13 03:44:04;;;;;;;3.30;1.20;;;16.70;99.90;;;;;;5090874;28;20020;-67
2021/11/13 03:46:29;;;;;;;2.88;1.23;;;16.60;99.90;;;;;;5091165;28;20093;-67
2021/11/13 03:48:55;;;;;;;2.72;1.42;;;16.70;99.90;;;;;;5091019;28;20070;-67
2021/11/13 03:51:21;;;;;;;2.80;1.40;;;16.70;99.90;;;;;;5091534;28;20124;-67
2021/11/13 03:53:48;;;;;;;3.50;1.50;;;16.70;99.90;;;;;;5091097;28;20032;-67
2021/11/13 03:56:14;;;;;;;2.65;1.33;;;16.70;99.90;;;;;;5090764;28;20028;-67
2021/11/13 03:58:40;;;;;;;2.90;1.20;;;16.70;99.90;;;;;;5091026;28;20040;-67
2021/11/13 04:01:06;;;;;;;2.55;1.45;;;16.70;99.90;;;;;;5092102;28;20042;-67
2021/11/13 04:03:31;;;;;;;2.63;1.40;;;16.70;99.90;;;;;;5093428;28;20074;-67
2021/11/13 04:05:57;;;;;;;2.75;1.15;;;16.70;99.90;;;;;;5094612;28;20490;-67
2021/11/13 04:08:23;;;;;;;3.15;1.23;;;16.70;99.90;;;;;;5094917;28;20463;-67
2021/11/13 04:10:49;;;;;;;2.60;1.38;;;16.70;99.90;;;;;;5093936;28;20035;-67
2021/11/13 04:13:15;;;;;;;2.60;1.23;;;16.70;99.90;;;;;;5093136;28;20016;-67
2021/11/13 04:15:41;;;;;;;3.10;1.10;;;16.70;99.90;;;;;;5094958;28;20050;-67
2021/11/13 04:18:06;;;;;;;1.90;1.35;;;16.70;99.90;;;;;;5093213;28;20464;-67
2021/11/13 04:20:32;;;;;;;2.22;1.20;;;16.80;99.90;;;;;;5094675;28;20415;-67
2021/11/13 04:22:58;;;;;;;2.40;1.30;;;16.70;99.90;;;;;;5094293;28;20464;-67
2021/11/13 04:25:24;;;;;;;2.17;1.20;;;16.80;99.90;;;;;;5094471;28;20052;-67
2021/11/13 04:27:51;;;;;;;2.08;1.10;;;16.80;99.90;;;;;;5094789;28;20028;-67
2021/11/13 04:30:18;;;;;;;2.72;1.10;;;16.80;99.90;;;;;;5094559;28;20404;-67
2021/11/13 04:32:45;;;;;;;2.33;0.90;;;16.70;99.90;;;;;;5094449;28;20012;-67
2021/11/13 04:38:03;;;;;;;1.90;0.90;;;16.80;99.90;;;;;;5065378;28;20044;-67
2021/11/13 04:40:32;;;;;;;2.45;1.35;;;16.80;99.90;;;;;;5094054;28;20490;-67
2021/11/13 04:42:57;;;;;;;2.33;1.17;;;16.80;99.90;;;;;;5094299;28;20078;-67
2021/11/13 04:45:23;;;;;;;1.30;0.85;;;16.80;99.90;;;;;;5094251;28;20502;-67
2021/11/13 04:47:49;;;;;;;2.58;1.17;;;16.80;99.90;;;;;;5093124;28;20383;-68
2021/11/13 04:50:19;;;;;;;1.88;1.00;;;16.80;99.90;;;;;;5093873;28;20027;-67
2021/11/13 04:52:46;;;;;;;2.15;1.08;;;16.80;99.90;;;;;;5094122;28;20477;-67
2021/11/13 04:55:13;;;;;;;1.83;0.93;;;16.80;99.90;;;;;;5093730;28;20028;-67
2021/11/13 04:57:39;;;;;;;2.63;1.20;;;16.80;99.90;;;;;;5093987;28;20379;-66
2021/11/13 05:00:09;;;;;;;2.55;1.20;;;16.80;99.90;;;;;;5093728;28;20495;-66
2021/11/13 05:02:36;;;;;;;2.22;1.00;;;16.80;99.90;;;;;;5094065;28;20048;-67
2021/11/13 05:05:02;;;;;;;2.15;0.98;;;16.80;99.90;;;;;;5093599;28;20027;-66
2021/11/13 05:07:28;;;;;;;2.05;0.95;;;16.80;99.90;;;;;;5094087;28;20016;-66
2021/11/13 05:09:54;;;;;;;1.20;0.70;;;16.90;99.90;;;;;;5093526;28;20016;-67
2021/11/13 05:12:21;;;;;;;2.72;1.23;;;16.80;99.90;;;;;;5093641;28;20024;-66
2021/11/13 05:14:47;;;;;;;1.45;0.80;;;16.80;99.90;;;;;;5093888;28;20422;-67
2021/11/13 05:17:13;;;;;;;1.77;0.93;;;16.80;99.90;;;;;;5093424;28;20024;-67
2021/11/13 05:19:40;;;;;;;1.58;0.80;;;16.90;99.90;;;;;;5093586;28;20547;-67
2021/11/13 05:22:07;;;;;;;1.98;0.85;;;16.90;99.90;;;;;;5093206;28;20032;-67
2021/11/13 05:24:33;;;;;;;2.13;1.08;;;16.90;99.90;;;;;;5093438;28;20035;-67
2021/11/13 05:26:58;;;;;;;1.75;0.80;;;16.90;99.90;;;;;;5093132;28;20073;-67
2021/11/13 05:29:24;;;;;;;4.07;1.08;;;16.90;99.90;;;;;;5093298;28;20094;-66
2021/11/13 05:31:50;;;;;;;2.38;1.10;;;16.90;99.90;;;;;;5093704;28;20032;-67
2021/11/13 05:34:15;;;;;;;1.52;0.75;;;16.90;99.90;;;;;;5092937;28;20464;-67
2021/11/13 05:36:41;;;;;;;2.60;0.95;;;16.90;99.90;;;;;;5093113;28;20031;-67
2021/11/13 05:39:07;;;;;;;1.52;0.80;;;16.90;99.90;;;;;;5091516;28;20472;-67
2021/11/13 05:41:34;;;;;;;2.08;0.90;;;16.90;99.90;;;;;;5092952;28;20032;-67
2021/11/13 05:44:00;;;;;;;1.15;0.80;;;16.90;99.90;;;;;;5092806;28;20055;-67
2021/11/13 05:46:26;;;;;;;1.90;0.70;;;16.90;99.90;;;;;;5093079;28;20026;-67
2021/11/13 05:48:52;;;;;;;2.00;0.85;;;16.90;99.90;;;;;;5093216;28;20518;-67
2021/11/13 05:51:18;;;;;;;2.38;0.73;;;16.90;99.90;;;;;;5093063;28;20478;-67
2021/11/13 05:53:43;;;;;;;2.20;1.00;;;16.90;99.90;;;;;;5092859;28;20020;-67
2021/11/13 05:56:09;;;;;;;2.22;0.93;;;16.90;99.90;;;;;;5092573;28;20040;-67
2021/11/13 05:58:35;;;;;;;1.40;0.90;;;16.90;99.90;;;;;;5092620;28;20028;-67
2021/11/13 06:01:00;;;;;;;1.85;0.80;;;17.00;99.90;;;;;;5092451;28;20054;-67
2021/11/13 06:03:26;;;;;;;2.22;0.80;;;17.00;99.90;;;;;;5092560;28;20423;-67
2021/11/13 06:05:52;;;;;;;2.17;0.90;;;17.00;99.90;;;;;;5092889;28;20020;-67
2021/11/13 06:08:17;;;;;;;2.13;0.80;;;17.00;99.90;;;;;;5092859;28;20376;-67
2021/11/13 06:10:43;;;;;;;1.13;0.65;;;17.00;99.90;;;;;;5092823;28;20050;-67
2021/11/13 06:13:09;;;;;;;2.03;0.85;;;17.00;99.90;;;;;;5092240;28;20104;-67
2021/11/13 06:15:35;;;;;;;2.75;0.80;;;17.00;99.90;;;;;;5092593;28;20099;-67
2021/11/13 06:18:01;;;;;;;1.95;0.77;;;17.00;99.90;;;;;;5092117;28;20027;-67
2021/11/13 06:20:26;;;;;;;2.45;1.00;;;17.00;99.90;;;;;;5090853;28;20032;-67
2021/11/13 06:22:52;;;;;;;1.80;0.80;;;17.00;99.90;;;;;;5092077;28;20373;-67
2021/11/13 06:25:18;;;;;;;2.20;0.73;;;17.00;99.90;;;;;;5092269;28;20055;-67
2021/11/13 06:27:44;;;;;;;3.22;0.93;;;17.00;99.90;;;;;;5092278;28;20095;-67
2021/11/13 06:30:12;;;;;;;2.05;0.73;;;17.00;99.90;;;;;;5092084;28;20036;-67
2021/11/13 06:32:38;;;;;;;1.25;0.75;;;17.00;99.90;;;;;;5092225;28;20024;-67
2021/11/13 06:35:06;;;;;;;1.98;0.70;;;17.10;99.90;;;;;;5091849;28;20036;-67
2021/11/13 06:37:32;;;;;;;2.45;0.90;;;17.00;99.90;;;;;;5092137;28;20023;-67
2021/11/13 06:39:58;;;;;;;1.45;0.70;;;17.10;99.90;;;;;;5091797;28;20024;-66
2021/11/13 06:42:24;;;;;;;2.38;0.95;;;17.10;99.90;;;;;;5092119;28;20176;-67
2021/11/13 06:44:49;;;;;;;3.08;1.00;;;17.10;99.90;;;;;;5092299;28;20024;-67
2021/11/13 06:47:15;;;;;;;1.70;0.88;;;17.10;99.90;;;;;;5091715;28;20020;-67
2021/11/13 06:49:41;;;;;;;2.70;0.80;;;17.10;99.90;;;;;;5091866;28;20107;-67
2021/11/13 06:52:07;;;;;;;2.85;1.05;;;17.10;99.90;;;;;;5091686;28;20379;-66
2021/11/13 06:54:33;;;;;;;1.63;0.70;;;17.10;99.90;;;;;;5091861;28;20100;-67
2021/11/13 06:56:59;;;;;;;2.03;1.05;;;17.10;99.90;;;;;;5091615;28;20024;-67
2021/11/13 06:59:24;;;;;;;1.83;0.93;;;17.10;99.90;;;;;;5091623;28;20084;-66
2021/11/13 07:01:50;;;;;;;1.27;0.70;;;17.10;99.90;;;;;;5092190;28;20028;-67
2021/11/13 07:04:16;;;;;;;1.77;0.77;;;17.10;99.90;;;;;;5091456;28;20031;-67
2021/11/13 07:06:42;;;;;;;1.67;0.60;;;17.10;99.90;;;;;;5091897;28;20031;-69
2021/11/13 07:09:07;;;;;;;1.77;0.70;;;17.10;99.90;;;;;;5091419;28;20032;-67
2021/11/13 07:11:33;;;;;;;1.33;0.60;;;17.10;99.90;;;;;;5091745;28;20036;-67
2021/11/13 07:13:59;;;;;;;3.42;0.95;;;17.20;99.90;;;;;;5091353;28;20032;-67
2021/11/13 07:16:24;;;;;;;2.55;0.98;;;17.10;99.90;;;;;;5091454;28;20016;-67
2021/11/13 07:18:50;;;;;;;1.15;0.57;;;17.20;99.90;;;;;;5091741;28;20032;-67
2021/11/13 07:21:16;;;;;;;2.47;0.70;;;17.10;99.90;;;;;;5091281;28;20085;-67
2021/11/13 07:23:42;;;;;;;1.58;0.80;;;17.20;99.90;;;;;;5091503;28;20020;-67
2021/11/13 07:26:08;;;;;;;1.40;0.82;;;17.20;99.90;;;;;;5091279;28;20529;-68
2021/11/13 07:28:40;;;;;;;1.63;0.70;;;17.20;99.90;;;;;;5091453;28;20050;-67
2021/11/13 07:31:08;;;;;;;1.55;0.70;;;17.20;99.90;;;;;;5091096;28;20063;-67
2021/11/13 07:33:34;;;;;;;1.38;0.70;;;17.30;99.90;;;;;;5091336;28;20867;-67
2021/11/13 07:36:00;;;;;;;2.28;0.70;;;17.20;99.90;;;;;;5094357;28;20130;-67
2021/11/13 07:38:26;;;;;;;1.67;0.70;;;17.30;99.90;;;;;;5094261;28;20407;-66
2021/11/13 07:40:52;;;;;;;2.33;0.85;;;17.30;99.90;;;;;;5095744;28;20039;-67
2021/11/13 07:43:17;;;;;;;5.70;1.02;;;17.30;99.90;;;;;;5095305;28;20446;-67
2021/11/13 07:45:44;;;;;;;2.13;0.73;;;17.40;99.90;;;;;;5095462;28;20089;-67
2021/11/13 07:48:09;;;;;;;2.97;0.75;;;17.40;99.90;;;;;;5095217;28;20028;-67
2021/11/13 07:50:36;;;;;;;2.08;0.70;;;17.40;99.90;;;;;;5095456;28;20483;-67
2021/11/13 07:53:05;;;;;;;5.00;1.00;;;17.40;99.90;;;;;;5095013;28;20538;-67
2021/11/13 07:55:32;;;;;;;6.28;0.98;;;17.50;99.90;;;;;;5095220;28;20032;-67
2021/11/13 07:57:58;;;;;;;9.73;0.80;;;17.50;99.90;;;;;;5094877;28;20434;-67
2021/11/13 08:00:26;;;;;;;5.57;1.05;;;17.60;99.90;;;;;;5095084;28;20036;-67
2021/11/13 08:02:52;;;;;;;6.65;1.02;;;17.60;99.90;;;;;;5095421;28;20369;-68
2021/11/13 08:05:18;;;;;;;2.97;0.90;;;17.70;99.90;;;;;;5095289;28;20032;-69
2021/11/13 08:07:45;;;;;;;3.33;0.90;;;17.70;99.90;;;;;;5094999;28;20521;-70
2021/11/13 08:10:11;;;;;;;3.35;0.70;;;17.60;99.90;;;;;;5093370;28;20028;-70
2021/11/13 08:12:38;;;;;;;2.40;0.50;;;17.60;99.90;;;;;;5094293;28;20488;-70
2021/11/13 08:15:05;;;;;;;5.25;1.05;;;17.60;99.90;;;;;;5093753;28;20114;-72
2021/11/13 08:17:31;;;;;;;7.10;0.70;;;17.70;99.90;;;;;;5094934;28;20027;-71
2021/11/13 08:19:56;;;;;;;7.30;1.10;;;17.70;99.90;;;;;;5094031;28;20024;-74
2021/11/13 08:22:22;;;;;;;4.25;1.08;;;17.70;99.90;;;;;;5094201;28;20356;-67
2021/11/13 08:24:48;;;;;;;8.02;2.60;;;17.70;99.90;;;;;;5094944;28;20130;-69
2021/11/13 08:27:14;;;;;;;14.57;6.38;;;17.70;99.90;;;;;;5094320;28;20117;-70
2021/11/13 08:29:40;;;;;;;12.80;6.57;;;17.70;99.90;;;;;;5094557;28;20027;-70
2021/11/13 08:32:06;;;;;;;29.75;14.20;;;17.70;99.90;;;;;;5094047;28;20532;-69
2021/11/13 08:34:33;;;;;;;48.88;19.45;;;17.80;99.90;;;;;;5094383;28;20379;-69
2021/11/13 08:36:59;;;;;;;49.25;19.98;;;17.80;99.90;;;;;;5094256;28;20081;-68
2021/11/13 08:39:25;;;;;;;44.72;20.33;;;17.90;99.90;;;;;;5092798;28;20035;-67
2021/11/13 08:41:51;;;;;;;44.35;20.65;;;17.90;99.90;;;;;;5093372;28;20406;-70
2021/11/13 08:44:17;;;;;;;39.70;19.98;;;17.90;99.90;;;;;;5092526;28;20061;-68
2021/11/13 08:46:43;;;;;;;42.03;19.35;;;17.90;99.90;;;;;;5090662;28;20388;-69
2021/11/13 08:49:09;;;;;;;37.08;19.17;;;17.90;99.90;;;;;;5092503;28;20020;-67
2021/11/13 08:51:35;;;;;;;41.70;18.40;;;17.90;99.90;;;;;;5092725;28;20028;-69
2021/11/13 08:54:01;;;;;;;36.70;17.92;;;17.90;99.90;;;;;;5092411;28;20080;-67
2021/11/13 08:56:31;;;;;;;38.63;19.35;;;17.90;99.90;;;;;;5091173;28;20024;-68
2021/11/13 08:58:57;;;;;;;34.10;16.17;;;17.90;99.90;;;;;;5076020;28;20043;-70
2021/11/13 09:01:27;;;;;;;28.77;16.30;;;17.90;99.90;;;;;;5073635;28;20502;-69
2021/11/13 09:03:53;;;;;;;28.98;15.07;;;18.00;99.90;;;;;;5075410;28;20024;-70
2021/11/13 09:06:23;;;;;;;25.77;13.82;;;18.00;99.90;;;;;;5079217;28;20016;-71
2021/11/13 09:08:50;;;;;;;28.70;14.65;;;18.00;99.90;;;;;;5087395;28;20066;-71
2021/11/13 09:11:23;;;;;;;30.15;14.15;;;17.90;99.90;;;;;;5083708;28;20021;-71
2021/11/13 09:13:50;;;;;;;26.98;13.50;;;18.00;99.90;;;;;;5093287;28;20024;-72
2021/11/13 09:16:16;;;;;;;25.85;13.07;;;18.00;99.90;;;;;;5082357;28;20032;-72
2021/11/13 09:18:44;;;;;;;21.00;11.90;;;18.00;99.90;;;;;;5085625;28;20380;-72
2021/11/13 09:21:10;;;;;;;21.75;12.20;;;18.00;99.90;;;;;;5076110;28;20188;-71
2021/11/13 09:23:36;;;;;;;21.73;11.18;;;18.00;99.90;;;;;;5084320;28;20042;-71
2021/11/13 09:26:02;;;;;;;23.13;11.82;;;18.00;99.90;;;;;;5085078;28;20027;-70
2021/11/13 09:28:29;;;;;;;21.40;11.20;;;18.00;99.90;;;;;;5083848;28;20013;-71
2021/11/13 09:30:58;;;;;;;21.02;11.35;;;18.00;99.90;;;;;;5077729;28;20796;-71
2021/11/13 09:33:25;;;;;;;20.20;10.70;;;18.10;99.90;;;;;;5084767;28;20036;-71
2021/11/13 09:35:51;;;;;;;19.75;10.10;;;18.00;99.90;;;;;;5087366;28;20081;-72
2021/11/13 09:38:17;;;;;;;19.88;10.25;;;18.10;99.90;;;;;;5081432;28;20039;-72
2021/11/13 09:40:42;;;;;;;17.63;10.15;;;18.00;99.90;;;;;;5078461;28;20043;-72
2021/11/13 09:43:08;;;;;;;16.30;9.27;;;18.10;99.90;;;;;;5088636;28;20524;-72
2021/11/13 09:45:35;;;;;;;16.95;9.50;;;18.10;99.90;;;;;;5075898;28;20063;-72
2021/11/13 09:48:02;;;;;;;16.55;9.45;;;18.10;99.90;;;;;;5092134;28;20396;-72
2021/11/13 09:50:32;;;;;;;17.95;9.75;;;18.10;99.90;;;;;;5081556;28;20488;-72
2021/11/13 09:52:59;;;;;;;18.73;9.25;;;18.10;99.90;;;;;;5086940;28;20030;-72
2021/11/13 09:55:26;;;;;;;16.17;9.20;;;18.10;99.90;;;;;;5077304;28;20032;-71
2021/11/13 09:57:52;;;;;;;16.15;8.93;;;18.10;99.90;;;;;;5086614;28;20035;-72
2021/11/13 10:00:25;;;;;;;15.45;8.50;;;18.10;99.90;;;;;;5074537;28;20029;-72
2021/11/13 10:02:51;;;;;;;15.82;8.07;;;18.10;99.90;;;;;;5085231;28;20026;-72
2021/11/13 10:05:17;;;;;;;14.50;8.30;;;18.00;99.90;;;;;;5090795;28;20020;-72
2021/11/13 10:07:43;;;;;;;15.13;8.23;;;18.10;99.90;;;;;;5083184;28;20355;-72
2021/11/13 10:10:13;;;;;;;14.63;7.53;;;18.10;99.90;;;;;;5083271;28;20043;-72
2021/11/13 10:12:43;;;;;;;13.50;7.05;;;18.10;99.90;;;;;;5084181;28;20430;-72
2021/11/13 10:15:37;;;;;;;13.32;6.47;;;18.10;99.90;;;;;;5090960;28;20028;-72
2021/11/13 10:18:24;;;;;;;11.50;6.80;;;18.10;99.90;;;;;;5084186;28;20029;-71
2021/11/13 10:20:59;;;;;;;13.65;6.80;;;18.10;99.90;;;;;;5085964;28;20387;-70
2021/11/13 10:23:25;;;;;;;12.70;6.85;;;18.10;99.90;;;;;;5088633;28;20580;-71
2021/11/13 10:26:13;;;;;;;13.18;7.20;;;18.10;99.90;;;;;;5090154;28;20032;-72
2021/11/13 10:28:47;;;;;;;12.93;6.43;;;18.10;99.90;;;;;;5088290;28;20022;-71
2021/11/13 10:31:23;;;;;;;10.65;5.93;;;18.20;99.90;;;;;;5089649;28;20027;-71
2021/11/13 10:33:50;;;;;;;9.75;5.15;;;18.20;99.90;;;;;;5084304;28;20043;-72
2021/11/13 10:36:28;;;;;;;9.73;5.30;;;18.20;99.90;;;;;;5080635;28;20024;-70
2021/11/13 10:39:04;;;;;;;8.70;4.90;;;18.20;99.90;;;;;;5086520;28;20472;-72
2021/11/13 10:41:31;;;;;;;9.55;5.35;;;18.20;99.90;;;;;;5090744;28;20040;-72
2021/11/13 10:43:57;;;;;;;10.43;5.55;;;18.20;99.90;;;;;;5084715;28;20476;-72
2021/11/13 10:46:24;;;;;;;9.60;5.38;;;18.20;99.90;;;;;;5084563;28;20454;-68
2021/11/13 10:48:54;;;;;;;9.85;5.30;;;18.20;99.90;;;;;;5077587;28;20099;-71
2021/11/13 10:51:30;;;;;;;9.25;5.10;;;18.20;99.90;;;;;;5089343;28;20055;-71
2021/11/13 10:53:56;;;;;;;10.02;4.97;;;18.20;99.90;;;;;;5084607;28;20020;-77
2021/11/13 10:56:24;;;;;;;9.48;4.43;;;18.20;99.90;;;;;;5081470;28;20024;-72
2021/11/13 10:59:00;;;;;;;12.13;4.20;;;18.20;99.90;;;;;;5091030;28;20492;-72
2021/11/13 11:01:40;;;;;;;8.13;4.00;;;18.20;99.90;;;;;;5087609;28;20058;-72
2021/11/13 11:04:19;;;;;;;10.35;4.72;;;18.30;99.90;;;;;;5078951;28;20073;-72
2021/11/13 11:06:47;;;;;;;9.43;4.32;;;18.20;99.90;;;;;;5077809;28;20028;-71
2021/11/13 11:09:21;;;;;;;6.45;3.80;;;18.20;99.90;;;;;;5087104;28;20073;-72
2021/11/13 11:11:48;;;;;;;7.47;3.90;;;18.20;99.90;;;;;;5076190;28;20026;-73
2021/11/13 11:14:17;;;;;;;6.75;3.75;;;18.20;99.90;;;;;;5081917;28;20039;-72
2021/11/13 11:16:55;;;;;;;9.68;3.63;;;18.30;99.90;;;;;;5084018;28;20067;-72
2021/11/13 11:19:30;;;;;;;7.80;3.78;;;18.30;99.90;;;;;;5083173;28;20475;-72
2021/11/13 11:22:03;;;;;;;6.68;3.95;;;18.30;99.90;;;;;;5084268;28;20119;-72
2021/11/13 11:24:49;;;;;;;5.63;3.37;;;18.30;99.90;;;;;;5082066;28;20024;-71
2021/11/13 11:27:26;;;;;;;6.93;3.67;;;18.20;99.90;;;;;;5078975;28;20051;-72
2021/11/13 11:30:20;;;;;;;7.80;3.55;;;18.30;99.90;;;;;;5078035;28;20108;-71
2021/11/13 11:32:52;;;;;;;5.68;3.40;;;18.30;99.90;;;;;;5082662;28;20078;-72
2021/11/13 11:35:29;;;;;;;9.05;3.63;;;18.30;99.90;;;;;;5088124;28;20411;-70
2021/11/13 11:38:00;;;;;;;7.80;3.58;;;18.30;99.90;;;;;;5090034;28;20468;-69
2021/11/13 11:40:28;;;;;;;7.25;3.10;;;18.30;99.90;;;;;;5085423;28;20036;-69
2021/11/13 11:42:55;;;;;;;6.43;3.03;;;18.30;99.90;;;;;;5073818;28;20076;-71
2021/11/13 11:45:24;;;;;;;4.93;3.00;;;18.30;99.90;;;;;;5089150;28;20032;-71
2021/11/13 11:47:52;;;;;;;7.53;2.90;;;18.30;99.90;;;;;;5085462;28;20078;-72
2021/11/13 11:50:26;;;;;;;5.97;3.20;;;18.30;99.90;;;;;;5078812;28;20031;-71
2021/11/13 11:52:57;;;;;;;5.22;2.80;;;18.30;99.90;;;;;;5076864;28;20055;-71
2021/11/13 11:55:24;;;;;;;5.95;3.10;;;18.30;99.90;;;;;;5086027;28;20028;-70
2021/11/13 11:58:21;;;;;;;8.57;3.05;;;18.30;99.90;;;;;;5085251;28;20395;-71
2021/11/13 12:00:49;;;;;;;4.80;2.88;;;18.40;99.90;;;;;;5087242;28;20040;-71
2021/11/13 12:03:29;;;;;;;5.45;2.63;;;18.40;99.90;;;;;;5073655;28;20027;-71
2021/11/13 12:05:55;;;;;;;5.03;2.90;;;18.40;99.90;;;;;;5084292;28;20059;-72
2021/11/13 12:08:23;;;;;;;7.25;3.13;;;18.40;99.90;;;;;;5080846;28;20048;-72
2021/11/13 12:10:50;;;;;;;5.10;3.03;;;18.40;99.90;;;;;;5076963;28;20469;-72
2021/11/13 12:13:27;;;;;;;5.18;2.38;;;18.40;99.90;;;;;;5086878;28;20077;-71
2021/11/13 12:15:59;;;;;;;4.50;2.55;;;18.40;99.90;;;;;;5076408;28;20353;-68
2021/11/13 12:18:26;;;;;;;5.00;2.45;;;18.40;99.90;;;;;;5090445;28;20028;-72
2021/11/13 12:21:07;;;;;;;5.45;2.75;;;18.40;99.90;;;;;;5090669;28;20387;-71
2021/11/13 12:23:35;;;;;;;5.45;2.60;;;18.40;99.90;;;;;;5077364;28;20103;-72
2021/11/13 12:26:01;;;;;;;7.55;2.33;;;18.40;99.90;;;;;;5086453;28;20031;-71
2021/11/13 12:28:29;;;;;;;5.25;2.40;;;18.40;99.90;;;;;;5084842;28;20024;-71
2021/11/13 12:31:01;;;;;;;5.00;2.35;;;18.40;99.90;;;;;;5078814;28;20484;-70
2021/11/13 12:33:37;;;;;;;4.70;2.33;;;18.40;99.90;;;;;;5093195;28;20016;-72
2021/11/13 12:36:06;;;;;;;4.53;2.35;;;18.40;99.90;;;;;;5086081;28;20533;-72
2021/11/13 12:38:39;;;;;;;4.43;2.55;;;18.40;99.90;;;;;;5090766;28;20059;-71
2021/11/13 12:41:21;;;;;;;6.78;2.50;;;18.40;99.90;;;;;;5077668;28;20380;-72
2021/11/13 12:43:57;;;;;;;4.55;2.10;;;18.40;99.90;;;;;;5079774;28;20020;-71
2021/11/13 12:46:42;;;;;;;5.55;2.00;;;18.40;99.90;;;;;;5093626;28;20081;-70
2021/11/13 12:49:21;;;;;;;3.70;2.13;;;18.40;99.90;;;;;;5076893;28;20372;-71